createdAt,value
2023-05-11T00:04:37.835Z,13.60
2023-05-11T00:09:41.565Z,13.90
2023-05-11T00:14:43.063Z,14.00
2023-05-11T00:19:44.604Z,14.02
2023-05-11T00:24:46.143Z,14.05
2023-05-11T00:29:47.646Z,14.02
2023-05-11T00:34:49.214Z,14.06
2023-05-11T00:39:50.800Z,14.11
2023-05-11T00:44:52.324Z,14.15
2023-05-11T00:49:53.821Z,14.17
2023-05-11T00:54:55.611Z,14.05
2023-05-11T00:59:57.279Z,14.07
2023-05-11T01:04:58.824Z,14.12
2023-05-11T01:10:13.541Z,14.06
2023-05-11T01:15:23.383Z,14.15
2023-05-11T01:20:27.085Z,14.15
2023-05-11T01:25:40.024Z,14.17
2023-05-11T01:30:47.375Z,14.16
2023-05-11T01:35:51.765Z,14.18
2023-05-11T01:40:55.962Z,14.09
2023-05-11T01:46:00.209Z,13.93
2023-05-11T01:51:02.507Z,14.10
2023-05-11T01:56:04.181Z,14.17
2023-05-11T02:01:06.645Z,14.13
2023-05-11T02:06:08.172Z,14.01
2023-05-11T02:11:10.481Z,14.12
2023-05-11T02:16:12.047Z,14.14
2023-05-11T02:21:13.617Z,14.08
2023-05-11T02:26:15.266Z,14.14
2023-05-11T02:31:18.106Z,14.35
2023-05-11T02:36:20.203Z,13.94
2023-05-11T02:41:23.369Z,14.03
2023-05-11T02:46:28.067Z,14.03
2023-05-11T02:51:39.412Z,13.82
2023-05-11T02:56:41.089Z,13.99
2023-05-11T03:01:42.656Z,13.55
2023-05-11T03:06:44.214Z,13.83
2023-05-11T03:11:45.818Z,13.90
2023-05-11T03:16:47.697Z,13.88
2023-05-11T03:21:50.227Z,13.84
2023-05-11T03:26:52.416Z,13.75
2023-05-11T03:31:54.537Z,13.79
2023-05-11T03:36:56.028Z,13.97
2023-05-11T03:41:57.510Z,13.97
2023-05-11T03:46:58.995Z,14.15
2023-05-11T03:52:00.478Z,14.26
2023-05-11T03:57:01.963Z,14.13
2023-05-11T04:02:03.536Z,14.12
2023-05-11T04:07:05.026Z,13.98
2023-05-11T04:12:06.724Z,13.84
2023-05-11T04:17:08.222Z,13.51
2023-05-11T04:22:12.106Z,13.48
2023-05-11T04:27:13.602Z,13.86
2023-05-11T04:32:15.683Z,13.84
2023-05-11T04:37:17.196Z,13.48
2023-05-11T04:42:18.699Z,13.60
2023-05-11T04:47:20.198Z,13.74
2023-05-11T04:52:21.733Z,13.68
2023-05-11T04:57:23.258Z,13.69
2023-05-11T05:02:24.821Z,13.57
2023-05-11T05:07:26.843Z,13.59
2023-05-11T05:12:28.328Z,13.60
2023-05-11T05:17:29.931Z,13.76
2023-05-11T05:22:34.271Z,13.85
2023-05-11T05:27:36.198Z,14.03
2023-05-11T05:32:37.732Z,14.00
2023-05-11T05:37:39.227Z,14.23
2023-05-11T05:42:40.823Z,14.22
2023-05-11T05:47:42.477Z,14.00
2023-05-11T05:52:44.053Z,14.23
2023-05-11T05:57:45.861Z,14.08
2023-05-11T06:02:47.436Z,14.30
2023-05-11T06:08:01.882Z,14.40
2023-05-11T06:13:10.375Z,14.29
2023-05-11T06:18:11.912Z,14.15
2023-05-11T06:23:13.444Z,13.94
2023-05-11T06:28:14.985Z,14.11
2023-05-11T06:33:16.470Z,14.25
2023-05-11T06:38:28.529Z,14.07
2023-05-11T06:43:30.112Z,14.12
2023-05-11T06:48:31.685Z,13.97
2023-05-11T06:53:33.282Z,13.91
2023-05-11T06:58:34.807Z,14.34
2023-05-11T07:03:36.424Z,14.35
2023-05-11T07:08:37.953Z,14.57
2023-05-11T07:13:39.522Z,14.55
2023-05-11T07:18:41.081Z,14.70
2023-05-11T07:23:42.941Z,14.61
2023-05-11T07:28:44.475Z,14.63
2023-05-11T07:33:46.102Z,14.63
2023-05-11T07:38:47.666Z,14.56
2023-05-11T07:43:49.256Z,14.80
2023-05-11T07:48:57.490Z,14.82
2023-05-11T07:54:05.624Z,14.83
2023-05-11T07:59:07.215Z,14.72
2023-05-11T08:04:38.150Z,14.73
2023-05-11T08:09:39.657Z,14.88
2023-05-11T08:14:43.457Z,14.71
2023-05-11T08:19:44.989Z,14.48
2023-05-11T08:24:46.930Z,15.11
2023-05-11T08:29:48.407Z,15.28
2023-05-11T08:34:50.036Z,15.20
2023-05-11T08:39:51.650Z,15.10
2023-05-11T08:44:55.354Z,15.32
2023-05-11T08:49:58.319Z,15.38
2023-05-11T08:54:59.819Z,15.22
2023-05-11T09:00:05.129Z,15.45
2023-05-11T09:05:06.871Z,15.31
2023-05-11T09:10:09.246Z,14.82
2023-05-11T09:15:11.678Z,14.71
2023-05-11T09:20:13.216Z,13.52
2023-05-11T09:25:16.965Z,14.03
2023-05-11T09:30:23.227Z,13.94
2023-05-11T09:35:26.495Z,14.11
2023-05-11T09:45:37.126Z,15.45
2023-05-11T09:50:38.708Z,14.75
2023-05-11T09:55:51.441Z,14.18
2023-05-11T10:00:53.752Z,13.63
2023-05-11T10:05:59.855Z,14.62
2023-05-11T10:11:04.539Z,14.58
2023-05-11T10:16:07.075Z,14.98
2023-05-11T10:21:08.518Z,14.78
2023-05-11T10:26:10.006Z,13.87
2023-05-11T10:31:11.554Z,12.78
2023-05-11T10:41:35.939Z,14.20
2023-05-11T10:46:59.132Z,15.04
2023-05-11T10:52:21.951Z,15.36
2023-05-11T10:57:48.711Z,14.62
2023-05-11T11:02:50.276Z,15.44
2023-05-11T11:08:03.853Z,15.22
2023-05-11T11:13:08.643Z,15.51
2023-05-11T11:18:28.527Z,15.38
2023-05-11T11:23:50.024Z,15.64
2023-05-11T11:28:54.434Z,15.15
2023-05-11T11:33:58.997Z,15.24
2023-05-11T11:39:01.297Z,14.53
2023-05-11T11:44:03.640Z,15.12
2023-05-11T11:49:09.036Z,15.83
2023-05-11T11:54:10.673Z,14.83
2023-05-11T11:59:13.962Z,15.04
2023-05-11T12:04:33.826Z,14.90
2023-05-11T12:09:36.963Z,15.51
2023-05-11T12:14:39.306Z,16.70
2023-05-11T12:19:44.383Z,16.68
2023-05-11T12:24:45.875Z,16.73
2023-05-11T12:29:50.821Z,16.61
2023-05-11T12:35:04.232Z,17.09
2023-05-11T12:40:06.484Z,16.40
2023-05-11T12:45:08.615Z,17.12
2023-05-11T12:50:10.236Z,17.51
2023-05-11T12:55:11.887Z,17.04
2023-05-11T13:00:14.730Z,17.47
2023-05-11T13:05:16.831Z,17.35
2023-05-11T13:10:23.830Z,16.99
2023-05-11T13:15:25.411Z,16.70
2023-05-11T13:20:29.595Z,17.11
2023-05-11T13:25:32.088Z,17.04
2023-05-11T13:30:34.976Z,16.80
2023-05-11T13:35:41.352Z,16.85
2023-05-11T13:40:42.904Z,17.23
2023-05-11T13:45:44.407Z,17.64
2023-05-11T13:50:45.962Z,17.59
2023-05-11T13:55:47.453Z,17.03
2023-05-11T14:01:06.523Z,16.67
2023-05-11T14:06:09.048Z,17.36
2023-05-11T14:11:10.535Z,17.19
2023-05-11T14:16:12.705Z,17.50
2023-05-11T14:21:14.284Z,17.48
2023-05-11T14:26:16.490Z,17.79
2023-05-11T14:31:18.005Z,17.19
2023-05-11T14:36:19.500Z,17.45
2023-05-11T14:41:21.595Z,17.37
2023-05-11T14:46:25.802Z,17.32
2023-05-11T14:51:28.056Z,17.25
2023-05-11T14:56:29.631Z,16.77
2023-05-11T15:01:31.222Z,17.52
2023-05-11T15:06:33.107Z,17.16
2023-05-11T15:11:35.422Z,16.89
2023-05-11T15:16:37.399Z,17.25
2023-05-11T15:21:38.968Z,17.50
2023-05-11T15:26:40.460Z,17.17
2023-05-11T15:31:42.385Z,17.10
2023-05-11T15:36:45.607Z,17.05
2023-05-11T15:41:47.105Z,17.01
2023-05-11T15:46:49.023Z,16.91
2023-05-11T15:51:50.546Z,16.72
2023-05-11T15:56:52.423Z,16.62
2023-05-11T16:01:54.540Z,16.64
2023-05-11T16:06:58.114Z,16.27
2023-05-11T16:12:00.957Z,16.48
2023-05-11T16:17:02.824Z,15.79
2023-05-11T16:22:04.443Z,15.84
2023-05-11T16:27:05.941Z,15.45
2023-05-11T16:32:07.491Z,15.50
2023-05-11T16:37:10.177Z,15.75
2023-05-11T16:42:12.011Z,14.94
2023-05-11T16:47:13.535Z,14.63
2023-05-11T16:52:15.027Z,15.43
2023-05-11T16:57:16.533Z,15.18
2023-05-11T17:02:19.675Z,15.60
2023-05-11T17:07:21.329Z,15.51
2023-05-11T17:12:23.467Z,15.03
2023-05-11T17:17:25.022Z,15.32
2023-05-11T17:22:28.074Z,15.46
2023-05-11T17:27:32.360Z,15.33
2023-05-11T17:32:34.252Z,15.61
2023-05-11T17:37:35.929Z,15.40
2023-05-11T17:42:37.495Z,15.00
2023-05-11T17:47:39.190Z,15.25
2023-05-11T17:52:41.772Z,15.54
2023-05-11T17:57:43.281Z,15.42
2023-05-11T18:02:47.845Z,15.47
2023-05-11T18:07:49.865Z,15.45
2023-05-11T18:12:51.430Z,15.68
2023-05-11T18:17:54.195Z,15.68
2023-05-11T18:22:56.897Z,15.73
2023-05-11T18:28:02.127Z,15.08
2023-05-11T18:33:03.761Z,15.00
2023-05-11T18:38:05.363Z,15.25
2023-05-11T18:43:06.880Z,15.25
2023-05-11T18:48:08.537Z,15.36
2023-05-11T18:53:10.129Z,14.89
2023-05-11T18:58:12.732Z,15.30
2023-05-11T19:03:15.055Z,15.04
2023-05-11T19:08:16.773Z,15.23
2023-05-11T19:13:18.899Z,15.04
2023-05-11T19:18:20.472Z,14.94
2023-05-11T19:23:22.177Z,14.99
2023-05-11T19:28:23.771Z,14.93
2023-05-11T19:33:25.288Z,15.12
2023-05-11T19:38:26.879Z,14.94
2023-05-11T19:43:28.415Z,14.89
2023-05-11T19:48:30.390Z,14.93
2023-05-11T19:53:32.018Z,14.70
2023-05-11T19:58:33.528Z,14.80
2023-05-11T20:03:35.182Z,14.56
2023-05-11T20:08:37.268Z,14.53
2023-05-11T20:13:38.841Z,14.77
2023-05-11T20:18:40.508Z,14.56
2023-05-11T20:23:42.082Z,14.70
2023-05-11T20:28:43.626Z,15.15
2023-05-11T20:38:49.917Z,14.37
2023-05-11T20:43:52.466Z,14.93
2023-05-11T20:48:53.980Z,14.57
2023-05-11T20:53:55.475Z,14.39
2023-05-11T20:58:57.002Z,14.74
2023-05-11T21:03:58.496Z,14.14
2023-05-11T21:09:00.303Z,14.89
2023-05-11T21:14:01.805Z,14.69
2023-05-11T21:19:03.362Z,14.49
2023-05-11T21:24:06.124Z,14.63
2023-05-11T21:29:07.669Z,14.51
2023-05-11T21:34:09.176Z,14.69
2023-05-11T21:39:12.887Z,14.65
2023-05-11T21:44:14.476Z,14.10
2023-05-11T21:49:16.047Z,14.56
2023-05-11T21:54:22.070Z,14.49
2023-05-11T21:59:26.663Z,14.40
2023-05-11T22:04:28.444Z,14.86
2023-05-11T22:09:31.434Z,14.88
2023-05-11T22:14:32.993Z,14.80
2023-05-11T22:19:34.509Z,14.70
2023-05-11T22:24:36.054Z,14.43
2023-05-11T22:29:37.565Z,14.51
2023-05-11T22:34:39.065Z,14.35
2023-05-11T22:39:40.588Z,14.20
2023-05-11T22:44:42.255Z,14.83
2023-05-11T22:49:43.801Z,14.62
2023-05-11T22:54:45.305Z,14.74
2023-05-11T22:59:46.847Z,15.46
2023-05-11T23:04:54.552Z,15.32
2023-05-11T23:09:56.238Z,15.15
2023-05-11T23:14:57.870Z,15.60
2023-05-11T23:19:59.407Z,15.49
2023-05-11T23:25:01.180Z,15.56
2023-05-11T23:30:02.687Z,15.81
2023-05-11T23:35:04.391Z,15.41
2023-05-11T23:40:07.139Z,15.23
2023-05-11T23:45:08.933Z,15.56
2023-05-11T23:50:11.369Z,16.05
2023-05-11T23:55:12.857Z,16.16
